ADDS METAR Data INFO
IDs: Format: Raw Decoded Include TAF

Data at: 1105 UTC 18 Oct 2017

KVIS 181056Z AUTO 00000KT 7SM CLR 16/10 A3002 RMK AO2 SLP170 T01610100
KVIS 180956Z AUTO 00000KT 7SM CLR 16/11 A3003 RMK AO2 SLP172 T01610106
KVIS 180856Z AUTO 00000KT 7SM CLR 16/10 A3002 RMK AO2 SLP172 T01610100 56008
KVIS 180756Z AUTO 00000KT 8SM CLR 17/10 A3003 RMK AO2 SLP174 T01720100 402890089
KVIS 180656Z AUTO 18003KT 8SM CLR 17/09 A3004 RMK AO2 SLP177 T01720094
KVIS 180556Z AUTO 00000KT 8SM CLR 19/08 A3005 RMK AO2 SLP180 T01890083 10267 20189 51010
KVIS 180456Z AUTO 34005KT 5SM HZ CLR 20/08 A3004 RMK AO2 SLP178 T02000083
KVIS 180356Z AUTO 29005KT 8SM CLR 20/09 A3003 RMK AO2 SLP175 T02000089
KVIS 180256Z AUTO 00000KT 9SM CLR 21/09 A3002 RMK AO2 SLP172 T02060089 53002
KVIS 180156Z AUTO 31006KT 8SM CLR 23/08 A3002 RMK AO2 SLP172 T02330083
KVIS 180056Z AUTO 31007KT 8SM CLR 25/08 A3001 RMK AO2 SLP168 T02500078
KVIS 172356Z AUTO 31008KT 6SM HZ CLR 27/08 A3001 RMK AO2 SLP169 T02670078 10289 20222 56010
KVIS 172256Z AUTO 33008KT 7SM CLR 29/07 A3001 RMK AO2 SLP169 T02890072
KVIS 172156Z AUTO 31007KT 7SM CLR 28/08 A3003 RMK AO2 SLP174 T02830083
KVIS 172056Z AUTO 34006KT 5SM HZ CLR 27/06 A3004 RMK AO2 SLP179 T02720061 58019
KVIS 171956Z AUTO 00000KT 6SM HZ CLR 26/07 A3007 RMK AO2 SLP190 T02610067
KVIS 171856Z AUTO 00000KT 5SM HZ CLR 25/08 A3009 RMK AO2 SLP195 T02500083
KVIS 171756Z AUTO VRB04KT 5SM HZ CLR 22/08 A3010 RMK AO2 SLP199 T02220078 10222 20089 50002 TSNO
KVIS 171656Z AUTO 11003KT 7SM CLR 21/07 A3010 RMK AO2 SLP200 T02060067
KVIS 171556Z AUTO 00000KT 5SM HZ CLR 16/07 A3011 RMK AO2 SLP202 T01560067
KVIS 171456Z AUTO 08003KT 7SM CLR 12/06 A3009 RMK AO2 SLP199 T01170061 51006
KVIS 171356Z AUTO 00000KT 9SM CLR 10/06 A3009 RMK AO2 SLP198 T01000056
KVIS 171256Z AUTO 00000KT 10SM CLR 11/06 A3008 RMK AO2 SLP193 T01060061
KVIS 171156Z AUTO 00000KT 9SM CLR 10/06 A3007 RMK AO2 SLP191 T01000061 10139 20094 55003